createdAt,value
2018-07-06T00:00:52.603Z,99500.70
2018-07-06T00:03:32.559Z,99509.06
2018-07-06T00:06:12.475Z,99507.77
2018-07-06T00:08:52.429Z,99502.63
2018-07-06T00:11:32.377Z,99509.12
2018-07-06T00:14:12.398Z,99503.44
2018-07-06T00:16:52.278Z,99511.28
2018-07-06T00:19:32.449Z,99508.86
2018-07-06T00:22:12.590Z,99505.92
2018-07-06T00:24:52.582Z,99514.92
2018-07-06T00:27:32.503Z,99511.91
2018-07-06T00:30:12.450Z,99514.62
2018-07-06T00:32:52.394Z,99510.00
2018-07-06T00:35:32.345Z,99509.44
2018-07-06T00:38:12.085Z,99509.98
2018-07-06T00:40:52.046Z,99514.33
2018-07-06T00:43:31.990Z,99511.12
2018-07-06T00:46:11.946Z,99509.76
2018-07-06T00:48:51.737Z,99516.53
2018-07-06T00:51:31.633Z,99519.48
2018-07-06T00:54:11.378Z,99515.36
2018-07-06T00:56:51.361Z,99513.47
2018-07-06T00:59:31.337Z,99511.22
2018-07-06T01:02:11.469Z,99510.09
2018-07-06T01:04:51.430Z,99506.02
2018-07-06T01:07:31.362Z,99502.77
2018-07-06T01:10:11.155Z,99500.62
2018-07-06T01:12:56.073Z,99498.77
2018-07-06T01:15:36.921Z,99500.95
2018-07-06T01:18:18.359Z,99493.62
2018-07-06T01:20:58.464Z,99498.47
2018-07-06T01:23:38.475Z,99496.85
2018-07-06T01:26:18.973Z,99496.80
2018-07-06T01:28:59.334Z,99495.99
2018-07-06T01:31:39.273Z,99492.16
2018-07-06T01:34:19.025Z,99499.31
2018-07-06T01:36:58.982Z,99496.89
2018-07-06T01:39:39.153Z,99487.38
2018-07-06T01:42:19.085Z,99484.13
2018-07-06T01:44:59.039Z,99485.77
2018-07-06T01:47:38.930Z,99485.27
2018-07-06T01:50:18.730Z,99494.27
2018-07-06T01:52:58.482Z,99491.02
2018-07-06T01:55:38.425Z,99491.58
2018-07-06T01:58:18.189Z,99486.41
2018-07-06T02:00:58.120Z,99488.83
2018-07-06T02:03:38.069Z,99489.61
2018-07-06T02:06:18.021Z,99493.95
2018-07-06T02:08:57.776Z,99495.88
2018-07-06T02:11:37.924Z,99489.66
2018-07-06T02:14:17.713Z,99490.49
2018-07-06T02:16:57.617Z,99489.66
2018-07-06T02:19:37.610Z,99490.18
2018-07-06T02:22:17.520Z,99492.63
2018-07-06T02:24:57.504Z,99493.20
2018-07-06T02:27:37.213Z,99504.33
2018-07-06T02:30:17.193Z,99498.66
2018-07-06T02:32:57.326Z,99498.35
2018-07-06T02:35:37.104Z,99498.35
2018-07-06T02:38:17.017Z,99494.30
2018-07-06T02:40:57.207Z,99490.73
2018-07-06T02:43:36.914Z,99488.80
2018-07-06T02:46:16.901Z,99487.73
2018-07-06T02:48:56.608Z,99484.23
2018-07-06T02:51:36.581Z,99485.03
2018-07-06T02:54:16.717Z,99488.59
2018-07-06T02:56:56.706Z,99483.44
2018-07-06T02:59:36.613Z,99487.27
2018-07-06T03:02:16.601Z,99490.77
2018-07-06T03:04:56.729Z,99487.24
2018-07-06T03:07:36.905Z,99486.16
2018-07-06T03:10:16.831Z,99488.63
2018-07-06T03:12:56.773Z,99485.38
2018-07-06T03:15:36.739Z,99487.01
2018-07-06T03:18:16.501Z,99489.44
2018-07-06T03:20:56.438Z,99495.67
2018-07-06T03:23:36.383Z,99499.48
2018-07-06T03:26:16.325Z,99496.99
2018-07-06T03:28:56.273Z,99490.20
2018-07-06T03:31:36.232Z,99506.51
2018-07-06T03:34:16.239Z,99510.57
2018-07-06T03:36:56.135Z,99509.75
2018-07-06T03:39:35.897Z,99512.45
2018-07-06T03:42:15.829Z,99506.15
2018-07-06T03:44:55.835Z,99512.88
2018-07-06T03:47:35.748Z,99507.38
2018-07-06T03:50:15.745Z,99506.81
2018-07-06T03:52:55.421Z,99515.68
2018-07-06T03:55:35.402Z,99514.34
2018-07-06T03:58:15.339Z,99513.27
2018-07-06T04:00:55.297Z,99514.59
2018-07-06T04:03:35.226Z,99508.29
2018-07-06T04:06:15.211Z,99511.03
2018-07-06T04:08:55.137Z,99517.78
2018-07-06T04:11:35.684Z,99516.31
2018-07-06T04:14:15.652Z,99504.27
2018-07-06T04:16:55.630Z,99510.03
2018-07-06T04:19:35.737Z,99512.30
2018-07-06T04:22:15.521Z,99510.49
2018-07-06T04:24:55.443Z,99514.61
2018-07-06T04:27:35.221Z,99512.83
2018-07-06T04:30:14.925Z,99511.66
2018-07-06T04:32:54.909Z,99510.93
2018-07-06T04:35:34.832Z,99507.63
2018-07-06T04:38:14.813Z,99515.81
2018-07-06T04:40:54.520Z,99507.52
2018-07-06T04:43:34.473Z,99515.72
2018-07-06T04:46:14.435Z,99514.17
2018-07-06T04:48:54.373Z,99519.75
2018-07-06T04:51:34.326Z,99514.30
2018-07-06T04:54:14.278Z,99510.62
2018-07-06T04:56:54.021Z,99515.88
2018-07-06T04:59:34.001Z,99511.98
2018-07-06T05:02:13.917Z,99511.53
2018-07-06T05:04:53.903Z,99513.95
2018-07-06T05:07:33.826Z,99517.30
2018-07-06T05:10:13.808Z,99515.27
2018-07-06T05:12:53.731Z,99517.15
2018-07-06T05:15:33.501Z,99506.77
2018-07-06T05:18:13.427Z,99510.38
2018-07-06T05:20:53.372Z,99507.86
2018-07-06T05:23:33.334Z,99509.54
2018-07-06T05:26:13.274Z,99504.34
2018-07-06T05:28:53.218Z,99512.51
2018-07-06T05:31:33.374Z,99508.23
2018-07-06T05:34:13.125Z,99507.03
2018-07-06T05:36:53.134Z,99504.47
2018-07-06T05:39:33.035Z,99505.50
2018-07-06T05:42:12.769Z,99509.41
2018-07-06T05:44:52.717Z,99512.15
2018-07-06T05:47:32.673Z,99503.70
2018-07-06T05:50:12.872Z,99502.36
2018-07-06T05:52:52.696Z,99505.27
2018-07-06T05:55:32.721Z,99500.73
2018-07-06T05:58:12.677Z,99502.16
2018-07-06T06:00:52.666Z,99494.02
2018-07-06T06:03:32.577Z,99491.33
2018-07-06T06:06:12.334Z,99489.23
2018-07-06T06:08:39.777Z,99494.73
2018-07-06T06:11:09.100Z,99497.84
2018-07-06T06:13:38.398Z,99501.10
2018-07-06T06:16:07.526Z,99498.30
2018-07-06T06:18:36.811Z,99499.64
2018-07-06T06:21:06.006Z,99490.44
2018-07-06T06:23:35.372Z,99489.57
2018-07-06T06:26:04.480Z,99491.48
2018-07-06T06:28:33.646Z,99490.68
2018-07-06T06:31:02.645Z,99484.17
2018-07-06T06:33:31.838Z,99488.15
2018-07-06T06:36:00.907Z,99484.31
2018-07-06T06:38:29.992Z,99482.25
2018-07-06T06:40:59.109Z,99479.22
2018-07-06T06:43:28.173Z,99474.45
2018-07-06T06:45:57.416Z,99479.84
2018-07-06T06:48:26.578Z,99470.34
2018-07-06T06:50:55.824Z,99476.84
2018-07-06T06:53:25.551Z,99474.45
2018-07-06T06:55:54.265Z,99476.48
2018-07-06T06:58:22.979Z,99470.09
2018-07-06T07:00:52.222Z,99474.38
2018-07-06T07:03:21.294Z,99478.54
2018-07-06T07:05:50.245Z,99479.34
2018-07-06T07:08:19.546Z,99478.36
2018-07-06T07:10:48.806Z,99483.56
2018-07-06T07:13:17.950Z,99472.88
2018-07-06T07:15:47.135Z,99476.22
2018-07-06T07:18:16.381Z,99467.66
2018-07-06T07:20:45.401Z,99468.23
2018-07-06T07:23:14.542Z,99471.72
2018-07-06T07:25:43.967Z,99466.94
2018-07-06T07:28:13.138Z,99466.30
2018-07-06T07:30:42.228Z,99466.84
2018-07-06T07:33:11.320Z,99470.79
2018-07-06T07:35:40.435Z,99466.59
2018-07-06T07:38:09.304Z,99471.99
2018-07-06T07:40:38.393Z,99465.14
2018-07-06T07:43:07.529Z,99468.50
2018-07-06T07:45:36.697Z,99457.27
2018-07-06T07:48:05.898Z,99459.56
2018-07-06T07:50:34.990Z,99456.70
2018-07-06T07:53:15.117Z,99461.63
2018-07-06T07:55:44.395Z,99456.16
2018-07-06T07:58:13.571Z,99453.23
2018-07-06T08:00:42.725Z,99454.69
2018-07-06T08:03:11.547Z,99452.27
2018-07-06T08:05:40.570Z,99448.91
2018-07-06T08:08:09.710Z,99448.16
2018-07-06T08:10:39.711Z,99447.23
2018-07-06T08:13:08.945Z,99444.03
2018-07-06T08:15:37.927Z,99435.80
2018-07-06T08:18:07.277Z,99439.55
2018-07-06T08:20:36.518Z,99431.59
2018-07-06T08:23:05.752Z,99440.71
2018-07-06T08:25:35.030Z,99443.44
2018-07-06T08:28:04.128Z,99442.74
2018-07-06T08:30:33.344Z,99442.94
2018-07-06T08:33:02.293Z,99441.64
2018-07-06T08:35:42.030Z,99438.33
2018-07-06T08:38:10.950Z,99444.98
2018-07-06T08:40:40.194Z,99439.37
2018-07-06T08:43:09.389Z,99435.91
2018-07-06T08:45:38.595Z,99440.06
2018-07-06T08:48:07.773Z,99443.66
2018-07-06T08:50:37.977Z,99436.48
2018-07-06T08:53:07.257Z,99436.55
2018-07-06T08:55:36.018Z,99434.12
2018-07-06T08:58:04.994Z,99440.20
2018-07-06T09:00:33.993Z,99433.98
2018-07-06T09:03:03.134Z,99435.73
2018-07-06T09:05:32.337Z,99434.28
2018-07-06T09:08:01.587Z,99431.41
2018-07-06T09:10:30.555Z,99435.95
2018-07-06T09:12:59.837Z,99433.53
2018-07-06T09:15:28.978Z,99431.89
2018-07-06T09:17:58.103Z,99425.80
2018-07-06T09:20:26.808Z,99424.72
2018-07-06T09:22:56.050Z,99431.16
2018-07-06T09:25:25.473Z,99425.23
2018-07-06T09:27:54.528Z,99425.28
2018-07-06T09:30:23.642Z,99421.48
2018-07-06T09:32:52.810Z,99422.45
2018-07-06T09:35:22.384Z,99418.12
2018-07-06T09:37:52.589Z,99414.35
2018-07-06T09:40:21.687Z,99417.20
2018-07-06T09:42:50.817Z,99411.66
2018-07-06T09:45:20.358Z,99412.88
2018-07-06T09:47:49.522Z,99415.84
2018-07-06T09:50:18.804Z,99404.32
2018-07-06T09:52:47.650Z,99409.99
2018-07-06T09:55:16.805Z,99407.61
2018-07-06T09:57:46.353Z,99405.69
2018-07-06T10:01:17.968Z,99399.00
2018-07-06T10:03:47.289Z,99411.10
2018-07-06T10:06:16.487Z,99414.44
2018-07-06T10:08:45.680Z,99418.06
2018-07-06T10:11:14.646Z,99410.89
2018-07-06T10:13:43.674Z,99403.88
2018-07-06T10:16:12.757Z,99406.09
2018-07-06T10:18:41.958Z,99405.20
2018-07-06T10:21:11.175Z,99413.87
2018-07-06T10:23:40.153Z,99406.45
2018-07-06T10:26:09.214Z,99404.83
2018-07-06T10:30:56.172Z,99408.52
2018-07-06T10:33:25.194Z,99405.64
2018-07-06T10:35:54.150Z,99398.33
2018-07-06T10:38:23.184Z,99397.16
2018-07-06T10:40:52.324Z,99393.16
2018-07-06T10:43:21.651Z,99389.10
2018-07-06T10:48:24.965Z,99391.28
2018-07-06T10:50:54.438Z,99390.38
2018-07-06T10:53:23.152Z,99391.20
2018-07-06T10:55:51.846Z,99385.55
2018-07-06T10:58:20.622Z,99393.45
2018-07-06T11:00:49.727Z,99397.40
2018-07-06T11:03:18.629Z,99393.61
2018-07-06T11:05:47.849Z,99400.03
2018-07-06T11:08:16.549Z,99384.50
2018-07-06T11:10:45.236Z,99389.90
2018-07-06T11:13:13.973Z,99383.84
2018-07-06T11:15:42.854Z,99383.98
2018-07-06T11:18:11.573Z,99382.28
2018-07-06T11:20:40.291Z,99375.39
2018-07-06T11:23:09.137Z,99369.97
2018-07-06T11:25:37.915Z,99371.56
2018-07-06T11:28:07.388Z,99369.41
2018-07-06T11:30:36.153Z,99367.17
2018-07-06T11:33:04.904Z,99368.01
2018-07-06T11:35:33.668Z,99366.78
2018-07-06T11:38:02.462Z,99371.45
2018-07-06T11:40:31.237Z,99367.62
2018-07-06T11:43:00.223Z,99371.83
2018-07-06T11:45:28.999Z,99370.47
2018-07-06T11:47:58.059Z,99364.72
2018-07-06T11:50:26.954Z,99362.75
2018-07-06T11:52:55.783Z,99367.32
2018-07-06T11:55:24.534Z,99365.84
2018-07-06T11:57:53.257Z,99363.19
2018-07-06T12:00:22.154Z,99360.28
2018-07-06T12:02:50.893Z,99356.03
2018-07-06T12:05:19.659Z,99353.69
2018-07-06T12:07:48.357Z,99345.72
2018-07-06T12:10:17.075Z,99349.70
2018-07-06T12:12:45.819Z,99340.06
2018-07-06T12:15:14.524Z,99347.19
2018-07-06T12:17:43.234Z,99343.23
2018-07-06T12:20:11.954Z,99338.66
2018-07-06T12:22:41.041Z,99335.50
2018-07-06T12:25:10.056Z,99337.75
2018-07-06T12:27:38.874Z,99329.89
2018-07-06T12:30:07.669Z,99327.19
2018-07-06T12:32:36.450Z,99327.99
2018-07-06T12:35:05.248Z,99316.31
2018-07-06T12:37:33.949Z,99321.28
2018-07-06T12:40:02.706Z,99316.93
2018-07-06T12:42:31.404Z,99314.02
2018-07-06T12:45:00.158Z,99305.14
2018-07-06T12:47:28.902Z,99300.06
2018-07-06T12:49:57.973Z,99304.52
2018-07-06T12:52:26.698Z,99301.33
2018-07-06T12:54:55.405Z,99294.06
2018-07-06T12:57:24.223Z,99293.75
2018-07-06T12:59:52.951Z,99292.12
2018-07-06T13:02:21.661Z,99289.70
2018-07-06T13:04:50.599Z,99286.02
2018-07-06T13:07:19.485Z,99280.93
2018-07-06T13:09:48.261Z,99281.34
2018-07-06T13:12:17.038Z,99280.62
2018-07-06T13:14:45.850Z,99282.40
2018-07-06T13:17:15.049Z,99284.89
2018-07-06T13:19:44.147Z,99286.70
2018-07-06T13:22:13.319Z,99283.66
2018-07-06T13:24:42.042Z,99288.27
2018-07-06T13:27:10.755Z,99283.30
2018-07-06T13:29:39.496Z,99284.86
2018-07-06T13:32:08.213Z,99277.94
2018-07-06T13:34:36.953Z,99280.20
2018-07-06T13:37:05.701Z,99271.85
2018-07-06T13:39:34.418Z,99271.33
2018-07-06T13:42:03.161Z,99268.09
2018-07-06T13:44:31.879Z,99274.17
2018-07-06T13:47:00.777Z,99270.56
2018-07-06T13:49:29.593Z,99273.39
2018-07-06T13:51:58.317Z,99268.50
2018-07-06T13:54:27.037Z,99266.66
2018-07-06T13:56:55.769Z,99264.70
2018-07-06T13:59:24.562Z,99262.67
2018-07-06T14:01:53.278Z,99263.26
2018-07-06T14:04:22.046Z,99257.23
2018-07-06T14:06:50.762Z,99257.44
2018-07-06T14:09:19.466Z,99258.08
2018-07-06T14:11:48.263Z,99254.91
2018-07-06T14:14:17.104Z,99253.55
2018-07-06T14:16:45.860Z,99247.14
2018-07-06T14:19:14.585Z,99252.44
2018-07-06T14:21:43.353Z,99252.03
2018-07-06T14:24:12.060Z,99257.09
2018-07-06T14:26:40.766Z,99249.85
2018-07-06T14:29:09.481Z,99252.59
2018-07-06T14:31:38.210Z,99253.11
2018-07-06T14:34:06.946Z,99253.97
2018-07-06T14:36:35.660Z,99247.73
2018-07-06T14:39:05.303Z,99252.09
2018-07-06T14:41:34.022Z,99256.08
2018-07-06T14:44:03.013Z,99248.25
2018-07-06T14:46:31.785Z,99249.22
2018-07-06T14:49:00.593Z,99249.37
2018-07-06T14:51:29.499Z,99260.43
2018-07-06T14:53:58.505Z,99249.05
2018-07-06T14:56:27.392Z,99250.11
2018-07-06T14:58:56.253Z,99247.08
2018-07-06T15:01:25.201Z,99237.66
2018-07-06T15:03:53.937Z,99244.25
2018-07-06T15:06:22.728Z,99249.03
2018-07-06T15:08:51.567Z,99251.89
2018-07-06T15:11:20.306Z,99242.24
2018-07-06T15:13:49.070Z,99253.70
2018-07-06T15:16:24.303Z,99248.95
2018-07-06T15:18:53.054Z,99252.17
2018-07-06T15:21:21.786Z,99252.97
2018-07-06T15:23:50.502Z,99249.62
2018-07-06T15:26:19.364Z,99251.13
2018-07-06T15:28:48.430Z,99260.56
2018-07-06T15:31:17.587Z,99258.36
2018-07-06T15:33:46.262Z,99255.82
2018-07-06T15:36:15.023Z,99260.78
2018-07-06T15:38:43.729Z,99263.38
2018-07-06T15:41:12.455Z,99263.56
2018-07-06T15:43:41.219Z,99264.58
2018-07-06T15:46:09.970Z,99266.01
2018-07-06T15:48:38.899Z,99265.11
2018-07-06T15:51:07.754Z,99262.23
2018-07-06T15:53:37.759Z,99264.20
2018-07-06T15:56:06.761Z,99269.56
2018-07-06T15:58:35.611Z,99266.80
2018-07-06T16:01:04.539Z,99269.44
2018-07-06T16:03:33.305Z,99258.43
2018-07-06T16:06:02.034Z,99262.22
2018-07-06T16:08:30.955Z,99266.00
2018-07-06T16:10:59.692Z,99267.13
2018-07-06T16:13:28.786Z,99269.95
2018-07-06T16:15:57.531Z,99273.08
2018-07-06T16:18:26.269Z,99274.44
2018-07-06T16:20:55.122Z,99276.20
2018-07-06T16:23:23.774Z,99282.02
2018-07-06T16:25:52.527Z,99284.28
2018-07-06T16:28:21.266Z,99278.83
2018-07-06T16:30:50.171Z,99278.92
2018-07-06T16:33:18.906Z,99271.41
2018-07-06T16:35:47.685Z,99272.83
2018-07-06T16:38:16.404Z,99269.31
2018-07-06T16:40:45.106Z,99266.56
2018-07-06T16:43:13.843Z,99272.31
2018-07-06T16:45:42.544Z,99272.59
2018-07-06T16:48:11.269Z,99269.28
2018-07-06T16:50:39.980Z,99267.11
2018-07-06T16:53:08.718Z,99275.84
2018-07-06T16:55:37.491Z,99273.18
2018-07-06T16:58:06.217Z,99275.03
2018-07-06T17:00:34.999Z,99272.62
2018-07-06T17:03:03.767Z,99274.78
2018-07-06T17:05:32.505Z,99278.91
2018-07-06T17:08:01.371Z,99284.70
2018-07-06T17:10:30.142Z,99277.91
2018-07-06T17:13:00.013Z,99275.77
2018-07-06T17:15:28.839Z,99273.23
2018-07-06T17:17:58.027Z,99268.71
2018-07-06T17:20:26.832Z,99275.98
2018-07-06T17:22:55.582Z,99279.55
2018-07-06T17:25:24.341Z,99279.25
2018-07-06T17:27:53.161Z,99279.73
2018-07-06T17:30:21.961Z,99274.35
2018-07-06T17:32:55.327Z,99273.34
2018-07-06T17:35:29.582Z,99281.13
2018-07-06T17:38:02.057Z,99274.03
2018-07-06T17:40:35.110Z,99282.48
2018-07-06T17:43:09.280Z,99279.02
2018-07-06T17:45:38.174Z,99281.10
2018-07-06T17:48:07.241Z,99278.31
2018-07-06T17:50:36.025Z,99278.56
2018-07-06T17:53:04.738Z,99287.20
2018-07-06T17:55:33.507Z,99283.41
2018-07-06T17:58:02.194Z,99290.63
2018-07-06T18:00:30.924Z,99292.00
2018-07-06T18:02:59.648Z,99300.04
2018-07-06T18:05:28.393Z,99304.33
2018-07-06T18:07:57.121Z,99304.45
2018-07-06T18:10:25.837Z,99306.73
2018-07-06T18:12:54.784Z,99306.09
2018-07-06T18:15:23.490Z,99307.74
2018-07-06T18:17:52.342Z,99314.95
2018-07-06T18:20:21.086Z,99318.06
2018-07-06T18:22:50.212Z,99319.23
2018-07-06T18:25:18.921Z,99320.31
2018-07-06T18:27:47.638Z,99333.50
2018-07-06T18:30:16.429Z,99325.28
2018-07-06T18:32:45.170Z,99324.02
2018-07-06T18:35:14.113Z,99323.85
2018-07-06T18:37:42.872Z,99328.52
2018-07-06T18:40:11.773Z,99333.71
2018-07-06T18:42:40.499Z,99344.83
2018-07-06T18:45:09.231Z,99346.76
2018-07-06T18:47:37.999Z,99350.12
2018-07-06T18:50:06.747Z,99350.53
2018-07-06T18:52:35.486Z,99354.67
2018-07-06T18:55:04.178Z,99363.03
2018-07-06T18:57:32.881Z,99363.13
2018-07-06T19:00:02.169Z,99367.95
2018-07-06T19:02:30.990Z,99363.46
2018-07-06T19:04:59.772Z,99364.58
2018-07-06T19:07:28.468Z,99368.52
2018-07-06T19:09:57.225Z,99374.35
2018-07-06T19:12:25.931Z,99373.32
2018-07-06T19:14:54.659Z,99379.59
2018-07-06T19:17:23.406Z,99384.63
2018-07-06T19:19:52.134Z,99385.31
2018-07-06T19:22:20.880Z,99386.84
2018-07-06T19:24:49.608Z,99389.20
2018-07-06T19:27:18.417Z,99386.12
2018-07-06T19:29:47.150Z,99391.83
2018-07-06T19:32:15.876Z,99386.84
2018-07-06T19:34:44.621Z,99389.07
2018-07-06T19:37:13.373Z,99393.55
2018-07-06T19:39:42.130Z,99392.52
2018-07-06T19:42:10.856Z,99393.84
2018-07-06T19:44:40.249Z,99391.47
2018-07-06T19:47:09.218Z,99395.89
2018-07-06T19:49:38.043Z,99391.30
2018-07-06T19:52:06.875Z,99393.80
2018-07-06T19:54:35.575Z,99399.86
2018-07-06T19:57:04.313Z,99398.56
2018-07-06T19:59:33.122Z,99400.73
2018-07-06T20:02:01.930Z,99402.55
2018-07-06T20:04:30.741Z,99392.33
2018-07-06T20:06:59.593Z,99398.29
2018-07-06T20:09:28.417Z,99396.67
2018-07-06T20:11:57.181Z,99393.16
2018-07-06T20:14:25.952Z,99391.42
2018-07-06T20:16:54.758Z,99396.38
2018-07-06T20:19:25.316Z,99391.59
2018-07-06T20:21:54.578Z,99387.56
2018-07-06T20:24:23.642Z,99379.52
2018-07-06T20:26:52.416Z,99382.10
2018-07-06T20:29:21.125Z,99386.53
2018-07-06T20:31:49.965Z,99387.15
2018-07-06T20:34:18.960Z,99393.62
2018-07-06T20:36:47.702Z,99391.70
2018-07-06T20:39:16.425Z,99401.53
2018-07-06T20:41:45.166Z,99405.47
2018-07-06T20:44:14.067Z,99412.13
2018-07-06T20:46:42.848Z,99416.77
2018-07-06T20:49:11.569Z,99413.28
2018-07-06T20:51:40.282Z,99413.03
2018-07-06T20:54:09.313Z,99410.02
2018-07-06T20:56:38.139Z,99416.83
2018-07-06T20:59:06.905Z,99417.92
2018-07-06T21:01:35.846Z,99416.31
2018-07-06T21:04:04.708Z,99415.09
2018-07-06T21:06:33.454Z,99414.65
2018-07-06T21:09:02.321Z,99418.52
2018-07-06T21:11:31.206Z,99420.13
2018-07-06T21:13:59.974Z,99421.19
2018-07-06T21:16:28.705Z,99417.66
2018-07-06T21:18:57.522Z,99414.79
2018-07-06T21:21:26.433Z,99419.70
2018-07-06T21:23:55.213Z,99423.10
2018-07-06T21:26:23.962Z,99421.66
2018-07-06T21:28:52.867Z,99419.74
2018-07-06T21:31:21.597Z,99407.73
2018-07-06T21:33:50.313Z,99411.73
2018-07-06T21:36:19.275Z,99410.66
2018-07-06T21:38:47.985Z,99402.50
2018-07-06T21:41:16.786Z,99402.66
2018-07-06T21:43:45.514Z,99403.30
2018-07-06T21:46:14.251Z,99400.38
2018-07-06T21:48:43.034Z,99395.33
2018-07-06T21:51:11.877Z,99394.53
2018-07-06T21:53:40.749Z,99404.73
2018-07-06T21:56:09.487Z,99402.35
2018-07-06T21:58:38.254Z,99398.28
2018-07-06T22:01:07.298Z,99405.97
2018-07-06T22:03:36.014Z,99402.73
2018-07-06T22:06:04.748Z,99406.59
2018-07-06T22:08:33.467Z,99399.80
2018-07-06T22:11:02.358Z,99399.32
2018-07-06T22:13:31.229Z,99404.47
2018-07-06T22:15:59.949Z,99396.78
2018-07-06T22:18:28.660Z,99400.53
2018-07-06T22:20:57.370Z,99402.73
2018-07-06T22:23:26.074Z,99400.02
2018-07-06T22:25:54.789Z,99399.80
2018-07-06T22:28:23.487Z,99402.00
2018-07-06T22:30:52.177Z,99392.52
2018-07-06T22:33:20.967Z,99388.73
2018-07-06T22:35:49.701Z,99385.98
2018-07-06T22:38:18.474Z,99383.34
2018-07-06T22:40:47.236Z,99386.13
2018-07-06T22:43:16.112Z,99388.85
2018-07-06T22:45:45.427Z,99382.09
2018-07-06T22:48:14.139Z,99390.80
2018-07-06T22:50:42.866Z,99377.53
2018-07-06T22:53:11.806Z,99396.52
2018-07-06T22:55:40.960Z,99399.02
2018-07-06T22:58:09.668Z,99396.04
2018-07-06T23:00:38.901Z,99397.11
2018-07-06T23:03:07.982Z,99389.77
2018-07-06T23:05:37.236Z,99395.49
2018-07-06T23:08:06.374Z,99395.23
2018-07-06T23:10:35.214Z,99393.62
2018-07-06T23:13:03.938Z,99390.99
2018-07-06T23:15:32.685Z,99386.59
2018-07-06T23:18:01.401Z,99392.61
2018-07-06T23:20:30.113Z,99394.03
2018-07-06T23:23:15.494Z,99381.80
2018-07-06T23:25:46.273Z,99385.61
2018-07-06T23:28:15.513Z,99380.70
2018-07-06T23:30:44.457Z,99380.18
2018-07-06T23:33:13.809Z,99383.97
2018-07-06T23:35:42.920Z,99379.11
2018-07-06T23:38:12.234Z,99385.41
2018-07-06T23:40:41.325Z,99379.72
2018-07-06T23:43:10.345Z,99379.45
2018-07-06T23:45:39.241Z,99380.89
2018-07-06T23:48:08.369Z,99384.66
2018-07-06T23:50:37.470Z,99388.20
2018-07-06T23:53:06.985Z,99390.38
2018-07-06T23:55:36.077Z,99386.35
2018-07-06T23:58:05.345Z,99378.17
